Time;durP1;ratioP1;P1;durP2;ratioP2;P2;SDS_P1;SDS_P2;PMS_P1;PMS_P2;Temp;Humidity;BMP_temperature;BMP_pressure;BME280_temperature;BME280_humidity;BME280_pressure;Samples;Min_cycle;Max_cycle;Signal;HPM_P1;HPM_P2
2022/10/15 00:01:25;;;;;;;65.70;42.70;;;;;;;10.16;79.71;98815.11;86807;1291;22887;-73
2022/10/15 00:03:26;;;;;;;68.20;42.90;;;;;;;10.14;79.63;98813.14;86724;1290;98870;-73
2022/10/15 00:05:29;;;;;;;68.60;43.90;;;;;;;10.10;79.38;98810.70;86643;1294;22498;-74
2022/10/15 00:07:35;;;;;;;76.70;44.00;;;;;;;10.06;79.57;98810.55;86801;1283;25104;-72
2022/10/15 00:09:55;;;;;;;77.90;43.30;;;;;;;10.03;79.73;98808.04;86758;1287;98775;-74
2022/10/15 00:12:04;;;;;;;62.90;40.10;;;;;;;9.98;79.58;98805.81;86802;1291;22477;-73
2022/10/15 00:14:06;;;;;;;68.00;43.90;;;;;;;9.93;79.51;98810.26;86710;1296;24327;-74
2022/10/15 00:16:11;;;;;;;65.10;42.70;;;;;;;9.87;79.42;98809.35;86644;1283;97781;-74
2022/10/15 00:18:15;;;;;;;78.50;45.70;;;;;;;9.83;79.75;98806.04;86814;1290;25870;-73
2022/10/15 00:20:17;;;;;;;86.20;46.40;;;;;;;9.81;79.73;98802.62;86678;1283;22473;-73
2022/10/15 00:22:20;;;;;;;78.70;48.20;;;;;;;9.80;79.75;98800.05;86696;1291;98827;-73
2022/10/15 00:24:22;;;;;;;78.50;50.40;;;;;;;9.78;79.77;98800.63;86660;1290;22684;-74
2022/10/15 00:26:26;;;;;;;77.00;46.90;;;;;;;9.78;79.92;98798.02;86693;1284;22515;-74
2022/10/15 00:28:29;;;;;;;79.90;47.00;;;;;;;9.78;80.07;98794.34;86861;1286;98985;-74
2022/10/15 00:30:31;;;;;;;88.10;47.70;;;;;;;9.78;80.29;98794.52;86883;1291;24410;-72
2022/10/15 00:32:35;;;;;;;79.20;46.40;;;;;;;9.78;80.16;98793.63;86809;1283;24274;-73
2022/10/15 00:34:39;;;;;;;78.90;48.70;;;;;;;9.79;80.24;98790.41;86486;1290;97958;-74
2022/10/15 00:36:40;;;;;;;71.90;48.20;;;;;;;9.72;80.14;98779.38;86734;1290;22519;-74
2022/10/15 00:38:42;;;;;;;81.00;48.30;;;;;;;9.81;80.24;98789.45;86718;1293;22619;-74
2022/10/15 00:40:44;;;;;;;87.50;48.60;;;;;;;9.82;80.29;98790.09;86652;1291;97925;-74
2022/10/15 00:42:46;;;;;;;85.90;47.90;;;;;;;9.83;80.39;98792.67;86909;1284;22525;-74
2022/10/15 00:44:53;;;;;;;82.50;48.00;;;;;;;9.84;80.62;98791.23;86858;1284;23000;-73
2022/10/15 00:47:02;;;;;;;78.50;48.90;;;;;;;9.86;80.49;98791.13;86824;1281;97899;-73
2022/10/15 00:49:16;;;;;;;86.40;44.80;;;;;;;9.87;80.48;98786.35;86686;1290;22535;-72
2022/10/15 00:51:28;;;;;;;76.40;45.30;;;;;;;9.92;80.51;98788.95;86647;1283;98786;-73
2022/10/15 00:53:30;;;;;;;73.20;44.10;;;;;;;9.93;80.42;98783.25;86965;1288;22491;-73
2022/10/15 00:55:37;;;;;;;87.00;46.40;;;;;;;9.92;80.43;98784.02;86922;1291;25523;-73
2022/10/15 00:57:41;;;;;;;75.30;47.20;;;;;;;9.90;80.32;98781.99;86766;1298;98886;-73
2022/10/15 00:59:49;;;;;;;74.30;46.40;;;;;;;9.91;80.48;98777.02;86652;1287;22512;-73
2022/10/15 01:01:52;;;;;;;78.80;47.50;;;;;;;9.93;80.47;98776.75;86794;1291;22554;-72
2022/10/15 01:03:55;;;;;;;78.70;45.20;;;;;;;9.94;80.51;98769.35;86729;1290;97991;-74
2022/10/15 01:05:56;;;;;;;81.30;47.10;;;;;;;9.94;80.47;98768.31;86870;1296;22495;-73
2022/10/15 01:07:58;;;;;;;80.10;45.60;;;;;;;9.95;80.46;98766.32;86940;1297;24238;-72
2022/10/15 01:10:04;;;;;;;71.60;45.30;;;;;;;9.95;80.50;98764.56;86592;1315;100111;-74
2022/10/15 01:12:16;;;;;;;72.10;45.40;;;;;;;9.96;80.58;98763.79;86867;1291;22461;-74
2022/10/15 01:14:38;;;;;;;81.90;44.50;;;;;;;9.95;80.51;98756.82;86797;1291;22620;-73
2022/10/15 01:16:48;;;;;;;75.50;44.90;;;;;;;9.94;80.71;98761.26;86769;1290;99693;-73
2022/10/15 01:19:01;;;;;;;82.00;46.80;;;;;;;9.94;80.67;98763.02;86800;1290;22517;-73
2022/10/15 01:21:06;;;;;;;74.40;47.40;;;;;;;9.93;80.46;98759.90;86874;1290;22619;-74
2022/10/15 01:23:40;;;;;;;75.00;47.90;;;;;;;9.90;80.51;98756.73;86802;1290;27003;-73
2022/10/15 01:26:06;;;;;;;77.80;46.80;;;;;;;9.91;80.71;98756.88;86383;1294;22612;-73
2022/10/15 01:28:27;;;;;;;82.30;47.30;;;;;;;9.91;80.50;98758.98;86210;1294;98889;-73
2022/10/15 01:30:34;;;;;;;81.60;46.70;;;;;;;9.86;80.38;98753.25;86400;1294;22519;-74
2022/10/15 01:32:48;;;;;;;78.50;44.90;;;;;;;9.83;80.46;98756.02;86565;1294;23714;-73
2022/10/15 01:35:01;;;;;;;82.40;45.30;;;;;;;9.79;80.38;98757.60;86465;1293;98898;-73
2022/10/15 01:37:13;;;;;;;72.60;44.70;;;;;;;9.74;80.32;98761.88;86514;1294;22690;-74
2022/10/15 01:39:22;;;;;;;67.90;44.10;;;;;;;9.70;80.44;98755.91;86452;1293;99631;-74
2022/10/15 01:41:36;;;;;;;69.00;41.30;;;;;;;9.68;80.57;98758.30;86622;1293;22468;-74
2022/10/15 01:43:45;;;;;;;70.70;42.50;;;;;;;9.65;80.27;98755.63;86356;1294;22485;-74
2022/10/15 01:45:52;;;;;;;67.20;40.50;;;;;;;9.53;80.50;98744.29;86305;1287;97961;-72
2022/10/15 01:47:58;;;;;;;60.40;41.10;;;;;;;9.59;80.38;98755.58;86175;1296;22972;-72
2022/10/15 01:50:02;;;;;;;62.60;38.40;;;;;;;9.54;80.13;98758.83;86419;1294;22979;-72
2022/10/15 01:52:11;;;;;;;75.20;40.60;;;;;;;9.45;80.13;98753.81;86427;1292;98800;-73
2022/10/15 01:54:17;;;;;;;64.00;38.00;;;;;;;9.35;80.12;98751.42;86378;1295;22490;-74
2022/10/15 01:56:23;;;;;;;75.60;39.50;;;;;;;9.31;80.16;98753.37;86116;1296;22623;-72
2022/10/15 01:58:27;;;;;;;63.10;38.90;;;;;;;9.27;80.31;98750.56;86220;1293;98750;-73
2022/10/15 02:00:29;;;;;;;60.30;37.40;;;;;;;9.23;80.42;98749.18;86318;1289;22547;-73
2022/10/15 02:02:30;;;;;;;62.10;38.90;;;;;;;9.13;80.36;98738.80;86454;1299;24368;-74
2022/10/15 02:04:32;;;;;;;57.70;38.30;;;;;;;9.13;80.38;98743.19;86524;1299;99032;-73
2022/10/15 02:06:41;;;;;;;63.80;37.00;;;;;;;9.07;80.51;98742.92;86465;1289;24008;-73
2022/10/15 02:08:59;;;;;;;60.10;38.80;;;;;;;9.04;80.40;98738.34;86635;1290;23723;-73
2022/10/15 02:11:09;;;;;;;73.40;40.70;;;;;;;9.02;80.59;98730.69;86506;1289;97686;-73
2022/10/15 02:13:35;;;;;;;67.10;41.00;;;;;;;8.93;80.54;98710.77;86583;1293;22472;-74
2022/10/15 02:15:43;;;;;;;64.40;37.50;;;;;;;9.03;80.51;98728.89;86614;1293;99383;-73
2022/10/15 02:17:54;;;;;;;65.80;40.30;;;;;;;9.04;80.91;98725.52;86826;1289;22430;-74
2022/10/15 02:20:21;;;;;;;63.00;38.80;;;;;;;9.05;81.00;98726.52;86735;1283;22483;-73
2022/10/15 02:22:34;;;;;;;65.90;41.50;;;;;;;9.04;80.93;98726.24;86440;1297;99242;-74
2022/10/15 02:24:53;;;;;;;68.50;39.60;;;;;;;9.01;80.68;98727.39;86603;1291;22494;-73
2022/10/15 02:26:57;;;;;;;63.50;39.00;;;;;;;8.99;80.75;98718.77;86796;1290;22484;-74
2022/10/15 02:29:04;;;;;;;72.50;40.70;;;;;;;9.04;80.81;98727.45;86539;1292;99036;-73
2022/10/15 02:31:10;;;;;;;66.40;39.50;;;;;;;9.06;80.73;98730.36;86679;1296;22688;-74
2022/10/15 02:33:14;;;;;;;61.00;38.00;;;;;;;9.06;80.75;98732.66;86633;1290;98154;-72
2022/10/15 02:35:20;;;;;;;66.60;39.00;;;;;;;9.04;81.04;98726.21;86792;1287;22482;-73
2022/10/15 02:37:26;;;;;;;69.90;39.30;;;;;;;9.05;80.80;98727.06;86630;1289;25627;-74
2022/10/15 02:39:28;;;;;;;62.50;38.70;;;;;;;9.07;80.94;98726.45;86854;1297;97895;-74
2022/10/15 02:41:34;;;;;;;65.20;40.20;;;;;;;9.08;80.99;98728.17;86639;1317;22611;-74
2022/10/15 02:43:38;;;;;;;70.40;39.20;;;;;;;9.08;80.93;98726.23;86704;1286;25364;-73
2022/10/15 02:45:42;;;;;;;62.30;40.50;;;;;;;9.09;81.04;98721.64;86529;1289;99248;-73
2022/10/15 02:47:44;;;;;;;65.00;38.40;;;;;;;9.11;80.88;98722.09;86611;1293;22637;-74
2022/10/15 02:49:45;;;;;;;74.30;38.40;;;;;;;9.12;81.13;98723.61;86879;1286;22536;-74
2022/10/15 02:51:47;;;;;;;64.30;38.90;;;;;;;9.13;81.21;98718.30;86644;1291;98272;-74
2022/10/15 02:53:50;;;;;;;63.30;37.30;;;;;;;9.13;81.16;98716.71;86682;1283;25341;-74
2022/10/15 02:55:52;;;;;;;60.20;38.30;;;;;;;9.14;81.34;98715.99;86564;1293;22949;-73
2022/10/15 02:57:54;;;;;;;56.60;37.90;;;;;;;9.12;81.25;98709.38;86638;1292;99238;-73
2022/10/15 02:59:55;;;;;;;64.90;39.30;;;;;;;9.16;81.17;98710.58;86652;1297;22923;-73
2022/10/15 03:01:58;;;;;;;60.20;37.90;;;;;;;9.17;81.22;98709.70;86832;1296;24264;-73
2022/10/15 03:04:00;;;;;;;60.70;38.30;;;;;;;9.17;81.29;98702.34;86648;1292;97968;-74
2022/10/15 03:06:02;;;;;;;57.30;36.70;;;;;;;9.16;81.33;98697.98;86649;1291;22543;-75
2022/10/15 03:08:04;;;;;;;58.50;38.20;;;;;;;9.16;81.25;98690.79;86775;1287;22626;-74
2022/10/15 03:10:07;;;;;;;73.10;39.10;;;;;;;9.16;81.52;98696.59;86572;1292;97891;-74
2022/10/15 03:12:09;;;;;;;56.90;37.40;;;;;;;9.15;81.22;98697.14;86794;1289;22540;-73
2022/10/15 03:14:11;;;;;;;66.00;37.80;;;;;;;9.15;81.25;98694.37;86809;1292;22438;-74
2022/10/15 03:16:13;;;;;;;54.40;35.90;;;;;;;9.14;81.08;98697.54;86487;1296;99423;-74
2022/10/15 03:18:15;;;;;;;59.80;34.70;;;;;;;9.14;80.93;98704.56;86710;1290;24374;-73
2022/10/15 03:20:16;;;;;;;60.40;35.00;;;;;;;9.13;80.94;98701.64;86781;1296;22573;-72
2022/10/15 03:22:18;;;;;;;55.30;33.00;;;;;;;9.12;81.26;98704.86;86665;1291;99332;-74
2022/10/15 03:24:20;;;;;;;48.40;32.60;;;;;;;9.09;81.07;98703.23;86696;1290;22883;-73
2022/10/15 03:26:22;;;;;;;60.00;36.10;;;;;;;9.09;81.37;98705.33;86748;1296;22591;-75
2022/10/15 03:28:23;;;;;;;70.80;38.50;;;;;;;9.09;81.08;98702.70;86691;1294;99249;-75
2022/10/15 03:30:25;;;;;;;63.10;36.60;;;;;;;9.10;81.46;98703.02;86708;1290;22482;-73
2022/10/15 03:32:26;;;;;;;64.00;35.30;;;;;;;9.11;81.41;98703.64;86763;1287;25270;-74
2022/10/15 03:34:28;;;;;;;64.40;36.20;;;;;;;9.13;81.27;98704.98;86450;1297;99103;-75
2022/10/15 03:36:30;;;;;;;55.10;32.60;;;;;;;9.15;81.42;98705.06;86645;1291;22523;-74
2022/10/15 03:38:31;;;;;;;51.20;32.30;;;;;;;9.15;81.17;98701.67;86722;1290;25417;-72
2022/10/15 03:40:34;;;;;;;56.10;34.40;;;;;;;9.14;81.36;98699.13;86759;1291;100120;-74
2022/10/15 03:42:35;;;;;;;55.30;34.80;;;;;;;9.13;81.01;98699.55;86596;1297;22504;-72
2022/10/15 03:44:37;;;;;;;55.30;34.90;;;;;;;9.09;81.28;98694.77;86599;1290;22940;-73
2022/10/15 03:46:38;;;;;;;54.20;33.20;;;;;;;9.08;81.19;98694.48;86528;1289;99543;-73
2022/10/15 03:48:40;;;;;;;57.70;34.20;;;;;;;9.07;81.23;98692.25;86585;1290;26488;-72
2022/10/15 03:50:42;;;;;;;55.80;35.30;;;;;;;9.06;81.14;98691.09;86388;1292;281199;-73
2022/10/15 03:52:43;;;;;;;55.40;35.20;;;;;;;9.02;81.22;98690.38;86436;1290;98251;-73
2022/10/15 03:54:45;;;;;;;63.60;35.00;;;;;;;9.00;81.26;98685.58;86420;1299;22448;-73
2022/10/15 03:56:47;;;;;;;59.50;35.00;;;;;;;8.98;81.12;98681.80;86671;1289;22516;-72
2022/10/15 03:58:49;;;;;;;58.00;35.00;;;;;;;8.96;81.24;98681.05;86751;1293;98164;-73
2022/10/15 04:00:50;;;;;;;54.40;34.30;;;;;;;8.94;81.05;98677.27;86633;1296;25076;-73
2022/10/15 04:02:52;;;;;;;54.40;35.20;;;;;;;8.91;81.47;98676.88;86598;1294;22575;-74
2022/10/15 04:04:54;;;;;;;56.70;36.40;;;;;;;8.88;81.36;98674.22;86585;1287;98531;-73
2022/10/15 04:06:56;;;;;;;57.00;35.80;;;;;;;8.82;81.27;98667.29;86646;1287;22478;-75
2022/10/15 04:08:58;;;;;;;64.50;35.10;;;;;;;8.82;81.50;98671.70;86771;1289;23524;-73
2022/10/15 04:11:02;;;;;;;60.20;37.70;;;;;;;8.78;81.25;98672.41;86488;1290;98857;-72
2022/10/15 04:13:04;;;;;;;61.40;35.00;;;;;;;8.77;81.41;98676.46;86583;1289;22761;-73
2022/10/15 04:15:06;;;;;;;66.40;36.20;;;;;;;8.76;81.32;98677.75;86552;1293;22539;-73
2022/10/15 04:17:08;;;;;;;56.70;35.20;;;;;;;8.74;81.44;98673.45;86541;1289;97739;-73
2022/10/15 04:19:10;;;;;;;60.90;35.60;;;;;;;8.74;81.54;98674.17;86566;1289;24369;-74
2022/10/15 04:21:11;;;;;;;54.90;34.50;;;;;;;8.73;81.59;98681.93;86514;1289;99697;-74
2022/10/15 04:23:14;;;;;;;50.30;33.60;;;;;;;8.67;81.55;98677.27;86581;1291;22425;-73
2022/10/15 04:25:17;;;;;;;56.40;32.60;;;;;;;8.68;81.54;98678.27;86722;1299;26074;-74
2022/10/15 04:27:18;;;;;;;50.30;32.90;;;;;;;8.67;81.44;98678.33;86658;1292;98110;-74
2022/10/15 04:29:20;;;;;;;51.10;33.60;;;;;;;8.65;81.66;98676.46;86564;1290;25398;-74
2022/10/15 04:31:22;;;;;;;56.90;34.40;;;;;;;8.63;81.57;98671.31;86708;1281;22487;-73
2022/10/15 04:33:25;;;;;;;53.60;33.10;;;;;;;8.58;81.32;98670.13;86634;1287;98899;-74
2022/10/15 04:35:27;;;;;;;57.60;35.70;;;;;;;8.56;81.37;98670.60;86455;1297;22650;-74
2022/10/15 04:37:32;;;;;;;52.00;31.00;;;;;;;8.55;81.00;98672.20;86734;1288;22488;-73
2022/10/15 04:39:34;;;;;;;60.10;36.60;;;;;;;8.54;81.39;98676.30;86444;1290;97759;-74
2022/10/15 04:41:36;;;;;;;56.90;33.40;;;;;;;8.52;81.47;98675.13;86607;1291;22463;-73
2022/10/15 04:43:39;;;;;;;46.90;31.10;;;;;;;8.51;81.60;98676.04;86705;1289;23968;-73
2022/10/15 04:45:41;;;;;;;60.80;33.20;;;;;;;8.47;81.26;98676.92;86521;1283;98176;-74
2022/10/15 04:47:45;;;;;;;49.50;31.90;;;;;;;8.42;81.36;98672.74;86673;1290;22518;-72
2022/10/15 04:49:47;;;;;;;58.00;33.00;;;;;;;8.39;81.64;98670.08;86501;1289;22464;-73
2022/10/15 04:51:48;;;;;;;53.30;32.70;;;;;;;8.36;81.63;98667.76;86539;1291;99248;-74
2022/10/15 04:53:52;;;;;;;54.20;32.50;;;;;;;8.34;81.35;98661.55;86570;1288;24299;-74
2022/10/15 04:56:02;;;;;;;51.20;32.30;;;;;;;8.32;81.24;98659.88;86566;1292;23209;-74
2022/10/15 04:58:04;;;;;;;51.60;33.20;;;;;;;8.30;81.26;98662.77;86826;1291;99674;-74
2022/10/15 05:00:06;;;;;;;47.80;32.30;;;;;;;8.28;81.48;98660.39;86594;1290;25394;-74
2022/10/15 05:02:08;;;;;;;52.40;32.10;;;;;;;8.27;81.53;98662.55;86695;1296;22484;-73
2022/10/15 05:04:11;;;;;;;49.60;30.90;;;;;;;8.24;81.30;98666.34;86570;1290;99024;-75
2022/10/15 05:06:17;;;;;;;55.60;33.00;;;;;;;8.22;81.27;98665.92;86467;1290;24136;-74
2022/10/15 05:08:19;;;;;;;51.10;32.50;;;;;;;8.20;81.40;98665.14;86637;1306;25504;-73
2022/10/15 05:10:20;;;;;;;47.00;29.70;;;;;;;8.18;81.39;98663.29;86232;1299;99026;-74
2022/10/15 05:12:22;;;;;;;51.90;30.30;;;;;;;8.16;81.17;98662.71;86457;1315;22615;-74
2022/10/15 05:14:24;;;;;;;67.00;33.90;;;;;;;8.09;81.15;98659.66;86822;1293;22483;-74
2022/10/15 05:16:28;;;;;;;60.40;33.90;;;;;;;8.05;81.14;98658.76;86596;1299;99106;-75
2022/10/15 05:18:29;;;;;;;58.70;32.10;;;;;;;8.05;81.30;98659.30;86366;1292;24367;-74
2022/10/15 05:20:31;;;;;;;54.10;32.10;;;;;;;8.05;81.36;98658.80;85917;1289;22533;-74
2022/10/15 05:22:33;;;;;;;48.60;31.70;;;;;;;8.05;81.46;98662.08;85719;1291;98986;-73
2022/10/15 05:24:34;;;;;;;47.40;31.40;;;;;;;8.06;81.47;98661.52;85890;1290;22511;-74
2022/10/15 05:26:36;;;;;;;56.30;32.90;;;;;;;8.03;81.68;98664.09;85913;1288;22502;-75
2022/10/15 05:28:38;;;;;;;64.50;34.70;;;;;;;8.02;81.33;98658.55;85708;1293;98028;-75
2022/10/15 05:30:39;;;;;;;60.50;34.00;;;;;;;8.03;81.59;98660.09;85971;1294;23012;-74
2022/10/15 05:32:41;;;;;;;49.10;31.10;;;;;;;8.05;81.58;98658.45;85956;1289;24869;-74
2022/10/15 05:34:42;;;;;;;55.30;34.90;;;;;;;8.07;81.95;98657.14;85930;1283;98724;-75
2022/10/15 05:36:44;;;;;;;60.10;34.90;;;;;;;8.09;81.91;98656.33;85929;1290;26011;-74
2022/10/15 05:38:48;;;;;;;55.80;35.00;;;;;;;8.12;82.06;98654.48;85964;1296;22532;-73
2022/10/15 05:40:49;;;;;;;57.20;36.20;;;;;;;8.14;81.77;98658.73;86024;1291;99279;-74
2022/10/15 05:42:52;;;;;;;65.50;33.80;;;;;;;8.17;81.62;98657.92;85963;1290;22480;-74
2022/10/15 05:44:53;;;;;;;58.10;32.40;;;;;;;8.20;81.83;98661.79;85769;1299;22515;-73
2022/10/15 05:46:55;;;;;;;58.80;35.20;;;;;;;8.24;81.89;98657.79;86122;1305;99245;-73
2022/10/15 05:48:57;;;;;;;62.00;33.50;;;;;;;8.27;81.85;98660.42;85928;1315;25872;-73
2022/10/15 05:51:04;;;;;;;69.20;34.40;;;;;;;8.31;81.93;98661.50;86233;1291;24033;-74
2022/10/15 05:53:06;;;;;;;49.80;32.00;;;;;;;8.33;82.19;98659.83;86192;1286;98088;-74
2022/10/15 05:55:07;;;;;;;53.90;32.20;;;;;;;8.35;81.96;98661.84;86165;1290;24447;-76
2022/10/15 05:57:09;;;;;;;50.90;32.90;;;;;;;8.39;82.26;98665.20;85965;1290;22502;-75
2022/10/15 05:59:10;;;;;;;51.60;32.40;;;;;;;8.42;82.13;98661.90;86136;1287;98890;-74
2022/10/15 06:01:13;;;;;;;56.80;31.90;;;;;;;8.45;82.18;98664.93;85981;1294;22494;-74
2022/10/15 06:03:14;;;;;;;53.70;32.10;;;;;;;8.48;82.43;98668.64;85957;1292;99712;-74
2022/10/15 06:05:16;;;;;;;53.20;32.50;;;;;;;8.50;81.94;98665.21;86258;1287;25964;-75
2022/10/15 06:07:19;;;;;;;52.00;32.20;;;;;;;8.55;82.38;98664.37;86116;1287;23960;-77
2022/10/15 06:09:21;;;;;;;52.40;32.30;;;;;;;8.57;82.18;98667.02;86094;1289;99775;-73
2022/10/15 06:11:22;;;;;;;48.60;31.50;;;;;;;8.62;82.07;98672.08;86084;1291;22642;-74
2022/10/15 06:13:24;;;;;;;56.30;32.00;;;;;;;8.65;82.10;98677.70;86107;1291;24267;-74
2022/10/15 06:15:26;;;;;;;61.70;34.80;;;;;;;8.69;82.25;98678.75;85833;1290;100144;-74
2022/10/15 06:17:28;;;;;;;57.40;32.50;;;;;;;8.74;82.07;98680.30;86214;1284;22496;-75
2022/10/15 06:19:29;;;;;;;55.30;33.00;;;;;;;8.79;82.37;98684.60;86268;1288;25412;-74
2022/10/15 06:21:32;;;;;;;48.00;31.80;;;;;;;8.83;82.32;98688.27;86009;1291;99458;-74
2022/10/15 06:23:34;;;;;;;65.80;32.10;;;;;;;8.91;82.44;98687.95;86037;1291;22956;-73
2022/10/15 06:25:36;;;;;;;54.00;33.30;;;;;;;8.99;82.04;98689.48;85846;1285;22546;-74
2022/10/15 06:27:38;;;;;;;56.10;32.70;;;;;;;9.07;82.24;98691.39;85878;1287;97893;-73
2022/10/15 06:29:40;;;;;;;57.40;30.00;;;;;;;9.16;82.20;98689.77;86082;1290;23416;-73
2022/10/15 06:31:41;;;;;;;58.70;32.60;;;;;;;9.26;82.37;98696.83;85904;1283;22493;-75
2022/10/15 06:33:43;;;;;;;51.80;31.60;;;;;;;9.35;82.34;98695.87;86117;1291;99134;-75
2022/10/15 06:35:48;;;;;;;51.10;31.90;;;;;;;9.45;82.36;98691.91;85947;1291;22846;-73
2022/10/15 06:37:50;;;;;;;53.50;31.20;;;;;;;9.52;82.55;98693.45;85953;1291;25309;-74
2022/10/15 06:39:52;;;;;;;53.70;31.90;;;;;;;9.62;82.46;98695.11;86002;1289;98284;-74
2022/10/15 06:41:54;;;;;;;49.70;30.80;;;;;;;9.69;82.40;98697.55;86317;1281;22522;-74
2022/10/15 06:43:55;;;;;;;49.20;29.20;;;;;;;9.77;82.32;98698.56;86213;1287;25371;-73
2022/10/15 06:45:58;;;;;;;47.40;30.10;;;;;;;9.85;82.38;98694.16;85876;1291;99285;-74
2022/10/15 06:48:06;;;;;;;47.20;29.10;;;;;;;9.92;82.22;98690.45;85919;1284;25512;-78
2022/10/15 06:50:10;;;;;;;41.30;28.00;;;;;;;10.02;82.37;98691.72;86028;1291;25118;-72
2022/10/15 06:52:13;;;;;;;59.60;30.30;;;;;;;10.12;82.51;98686.67;86252;1288;99633;-76
2022/10/15 06:54:17;;;;;;;48.10;29.00;;;;;;;10.21;82.44;98687.26;86261;1287;22420;-74
2022/10/15 06:56:19;;;;;;;38.60;26.00;;;;;;;10.31;82.50;98683.91;86240;1290;25264;-73
2022/10/15 06:58:21;;;;;;;54.80;27.90;;;;;;;10.41;82.43;98683.63;85950;1291;99440;-74
2022/10/15 07:00:24;;;;;;;40.40;25.70;;;;;;;10.48;82.33;98685.17;86141;1291;22645;-76
2022/10/15 07:02:25;;;;;;;41.80;25.60;;;;;;;10.57;82.33;98682.23;86137;1289;22481;-75
2022/10/15 07:04:29;;;;;;;38.00;25.90;;;;;;;10.66;82.38;98676.52;85865;1291;100288;-73
2022/10/15 07:06:31;;;;;;;44.50;25.60;;;;;;;10.75;82.30;98678.15;86131;1291;24254;-75
2022/10/15 07:08:33;;;;;;;44.90;25.80;;;;;;;10.83;82.31;98680.37;86095;1288;22743;-73
2022/10/15 07:10:34;;;;;;;42.50;25.10;;;;;;;10.90;82.20;98677.52;86390;1296;99334;-73
2022/10/15 07:12:36;;;;;;;38.40;24.70;;;;;;;10.96;82.24;98674.89;85669;1292;25897;-74
2022/10/15 07:14:38;;;;;;;46.00;25.20;;;;;;;11.05;82.13;98674.92;86077;1289;23233;-74
2022/10/15 07:16:40;;;;;;;51.10;23.70;;;;;;;11.13;82.14;98678.01;86026;1282;99358;-74
2022/10/15 07:18:47;;;;;;;36.70;23.20;;;;;;;11.22;82.03;98680.81;85926;1284;25984;-74
2022/10/15 07:20:49;;;;;;;40.50;24.20;;;;;;;11.32;82.14;98681.17;86211;1283;24245;-74
2022/10/15 07:22:56;;;;;;;32.90;23.00;;;;;;;11.42;82.10;98680.64;86033;1283;98377;-75
2022/10/15 07:24:58;;;;;;;35.50;22.90;;;;;;;11.52;81.91;98682.72;86434;1291;22495;-74
2022/10/15 07:27:00;;;;;;;35.40;22.20;;;;;;;11.62;81.95;98685.14;86247;1284;22528;-73
2022/10/15 07:29:02;;;;;;;40.00;22.80;;;;;;;11.72;82.00;98687.20;86063;1299;99402;-73
2022/10/15 07:31:06;;;;;;;33.30;21.00;;;;;;;11.83;81.91;98688.31;86320;1289;22497;-74
2022/10/15 07:33:08;;;;;;;31.20;21.20;;;;;;;11.95;81.84;98684.84;86475;1281;24246;-74
2022/10/15 07:35:09;;;;;;;39.20;21.40;;;;;;;12.06;81.80;98684.89;85923;1290;98178;-73
2022/10/15 07:37:11;;;;;;;27.80;19.20;;;;;;;12.18;81.78;98687.53;86341;1287;22521;-74
2022/10/15 07:39:13;;;;;;;28.00;20.20;;;;;;;12.31;81.67;98687.14;87193;1291;22719;-75
2022/10/15 07:41:17;;;;;;;31.30;19.20;;;;;;;12.40;81.53;98690.46;86679;1288;22765;-75
2022/10/15 07:43:19;;;;;;;26.80;19.30;;;;;;;12.53;81.48;98691.83;86495;1291;22529;-73
2022/10/15 07:45:22;;;;;;;31.20;18.70;;;;;;;12.63;81.37;98693.33;86465;1283;98613;-75
2022/10/15 07:47:24;;;;;;;33.00;18.80;;;;;;;12.73;81.19;98691.08;86554;1287;23341;-74
2022/10/15 07:49:25;;;;;;;28.60;17.80;;;;;;;12.84;81.04;98695.20;86469;1286;22507;-75
2022/10/15 07:51:27;;;;;;;24.70;17.50;;;;;;;12.94;80.94;98694.22;86356;1289;98300;-74
2022/10/15 07:53:29;;;;;;;30.20;19.00;;;;;;;13.04;81.00;98694.13;86463;1289;23846;-74
2022/10/15 07:55:31;;;;;;;26.40;18.70;;;;;;;13.15;80.90;98688.88;86302;1290;25463;-75
2022/10/15 07:57:36;;;;;;;29.30;18.80;;;;;;;13.26;80.61;98691.32;86333;1283;99360;-75
2022/10/15 07:59:37;;;;;;;39.50;19.20;;;;;;;13.38;80.86;98689.88;86455;1289;22505;-74
2022/10/15 08:01:39;;;;;;;35.40;17.90;;;;;;;13.52;80.47;98692.57;86488;1290;22538;-74
2022/10/15 08:03:41;;;;;;;30.40;16.60;;;;;;;13.65;80.46;98689.02;86217;1285;98646;-74
2022/10/15 08:05:43;;;;;;;32.10;19.00;;;;;;;13.76;80.11;98691.30;86523;1290;22525;-75
2022/10/15 08:07:45;;;;;;;25.60;17.80;;;;;;;13.86;80.03;98691.92;86466;1287;22512;-74
2022/10/15 08:09:47;;;;;;;28.40;18.50;;;;;;;13.99;80.04;98688.44;86356;1289;100171;-74
2022/10/15 08:11:49;;;;;;;26.30;18.70;;;;;;;14.11;79.92;98682.46;86450;1290;22526;-74
2022/10/15 08:13:52;;;;;;;26.10;17.60;;;;;;;14.26;79.83;98686.92;86150;1287;22501;-74
2022/10/15 08:15:53;;;;;;;24.20;17.30;;;;;;;14.42;79.67;98689.23;86309;1288;99126;-77
2022/10/15 08:17:55;;;;;;;24.80;16.10;;;;;;;14.60;79.55;98686.76;86434;1283;22971;-74
2022/10/15 08:20:00;;;;;;;23.90;16.70;;;;;;;14.70;79.09;98684.65;86418;1287;24452;-73
2022/10/15 08:22:02;;;;;;;22.40;16.40;;;;;;;14.76;79.01;98684.79;86305;1284;99511;-76
2022/10/15 08:24:06;;;;;;;25.00;16.20;;;;;;;14.84;78.87;98684.72;86733;1291;22505;-74
2022/10/15 08:26:08;;;;;;;27.60;16.20;;;;;;;14.94;78.85;98686.52;86432;1287;22702;-73
2022/10/15 08:28:10;;;;;;;23.20;15.20;;;;;;;15.07;78.87;98686.31;86277;1291;99483;-74
2022/10/15 08:30:12;;;;;;;22.20;16.40;;;;;;;15.19;78.63;98690.45;86112;1289;23987;-74
2022/10/15 08:32:15;;;;;;;26.00;17.80;;;;;;;15.29;78.50;98689.00;86161;1283;24236;-76
2022/10/15 08:34:16;;;;;;;22.90;15.60;;;;;;;15.39;78.40;98689.02;86347;1286;99186;-74
2022/10/15 08:36:18;;;;;;;23.40;15.40;;;;;;;15.46;78.12;98686.48;86428;1290;24224;-76
2022/10/15 08:38:20;;;;;;;25.10;16.30;;;;;;;15.54;78.08;98684.90;86340;1289;22510;-72
2022/10/15 08:40:22;;;;;;;24.20;15.50;;;;;;;15.61;78.01;98682.76;86387;1287;99645;-74
2022/10/15 08:42:37;;;;;;;24.20;15.80;;;;;;;15.69;77.75;98685.58;86180;1290;22625;-73
2022/10/15 08:44:56;;;;;;;21.20;16.60;;;;;;;15.72;77.55;98679.31;86173;1283;22511;-73
2022/10/15 08:47:09;;;;;;;29.00;16.00;;;;;;;15.80;77.46;98678.92;86364;1290;98311;-76
2022/10/15 08:49:26;;;;;;;23.70;15.60;;;;;;;15.81;77.15;98679.35;86473;1280;22580;-74
2022/10/15 08:51:48;;;;;;;25.80;16.00;;;;;;;15.84;77.20;98684.85;86103;1284;100652;-72
2022/10/15 08:53:56;;;;;;;16.90;15.00;;;;;;;15.90;77.26;98683.69;86302;1283;22510;-73
2022/10/15 08:56:07;;;;;;;32.40;15.50;;;;;;;15.93;77.03;98686.84;86277;1291;22625;-73
2022/10/15 08:58:18;;;;;;;23.10;15.70;;;;;;;15.96;77.07;98683.73;85962;1289;99645;-73
2022/10/15 09:00:24;;;;;;;19.90;15.70;;;;;;;16.02;77.05;98681.90;86302;1288;24230;-71
2022/10/15 09:02:49;;;;;;;16.40;13.90;;;;;;;16.08;76.94;98678.41;86393;1288;24300;-73
2022/10/15 09:05:09;;;;;;;22.30;15.70;;;;;;;16.18;76.81;98677.84;86174;1291;99313;-72
2022/10/15 09:07:17;;;;;;;21.30;15.10;;;;;;;16.26;76.73;98682.05;86379;1284;25246;-71
2022/10/15 09:09:41;;;;;;;24.70;15.70;;;;;;;16.30;76.48;98686.70;86411;1291;99724;-72
2022/10/15 09:12:19;;;;;;;24.80;15.40;;;;;;;16.34;76.27;98691.73;86493;1280;25398;-70
2022/10/15 09:14:27;;;;;;;26.00;15.60;;;;;;;16.30;76.21;98675.33;86361;1290;22591;-73
2022/10/15 09:16:36;;;;;;;19.40;15.30;;;;;;;16.42;76.14;98688.79;86447;1289;99137;-72
2022/10/15 09:18:46;;;;;;;21.50;16.00;;;;;;;16.47;76.26;98687.15;86424;1284;25318;-75
2022/10/15 09:20:49;;;;;;;20.30;15.00;;;;;;;16.53;76.20;98685.66;86309;1287;25308;-71
2022/10/15 09:22:51;;;;;;;22.60;15.00;;;;;;;16.56;76.01;98690.04;86201;1297;99264;-76
2022/10/15 09:24:53;;;;;;;19.40;15.60;;;;;;;16.62;75.96;98690.80;86350;1289;22605;-72
2022/10/15 09:27:02;;;;;;;20.80;14.90;;;;;;;16.69;75.94;98694.51;86285;1287;22528;-72
2022/10/15 09:29:29;;;;;;;20.10;15.80;;;;;;;16.78;75.95;98693.15;86012;1283;99487;-73
2022/10/15 09:31:40;;;;;;;16.80;14.50;;;;;;;16.88;75.67;98695.17;86224;1283;22516;-73
2022/10/15 09:33:49;;;;;;;34.90;15.70;;;;;;;16.94;75.30;98695.07;86187;1288;98039;-74
2022/10/15 09:35:57;;;;;;;17.90;14.90;;;;;;;17.01;75.37;98693.27;86346;1289;23510;-74
2022/10/15 09:38:26;;;;;;;29.90;15.50;;;;;;;17.20;75.49;98696.38;86762;1283;22628;-72